Hammer Odde, Denmark
Current Conditions -  °F | °C
As of 12:20 AM on Saturday 20 Dec 2014 (Local Time) from EKRN Reporting Station
Broken Clouds Broken Clouds  
Wind Chill: 32°   Ceiling: 2700
Heat Index: 43°   Visibility: 6mi
Dew Point: 37°   Wind: 32mph
Humidity: 81%   Direction: 260°W
Pressure: 29.59"   Gusts: NA
Location:  55.3°N, 14.78°E
Report Text: EKRN 192320Z AUTO 26028KT 9999NDV BKN027/// 06/03 Q1002
Loading
Personal Weather Stations






























Interactive Weather Map New forecast layout! Learn more

10-Day Weather Forecast

Advertisements
Track Severe Weather on mobile